sensor_id;sensor_type;location;lat;lon;timestamp;pressure;altitude;pressure_sealevel;temperature;humidity
50734;BME280;36701;51.798;19.474;2022-11-20T00:01:22;98533.75;;;-3.18;100.00
50734;BME280;36701;51.798;19.474;2022-11-20T00:03:51;98506.31;;;-3.55;100.00
50734;BME280;36701;51.798;19.474;2022-11-20T00:06:19;98531.44;;;-3.13;100.00
50734;BME280;36701;51.798;19.474;2022-11-20T00:08:46;98531.78;;;-3.16;100.00
50734;BME280;36701;51.798;19.474;2022-11-20T00:13:41;98546.28;;;-3.20;100.00
50734;BME280;36701;51.798;19.474;2022-11-20T00:16:09;98540.97;;;-3.12;100.00
50734;BME280;36701;51.798;19.474;2022-11-20T00:18:37;98532.38;;;-3.06;100.00
50734;BME280;36701;51.798;19.474;2022-11-20T00:21:04;98498.44;;;-3.55;100.00
50734;BME280;36701;51.798;19.474;2022-11-20T00:23:32;98495.78;;;-3.55;100.00
50734;BME280;36701;51.798;19.474;2022-11-20T00:26:06;98533.31;;;-2.99;100.00
50734;BME280;36701;51.798;19.474;2022-11-20T00:28:33;98513.53;;;-2.95;100.00
50734;BME280;36701;51.798;19.474;2022-11-20T00:31:08;98521.50;;;-3.03;100.00
50734;BME280;36701;51.798;19.474;2022-11-20T00:33:35;98519.22;;;-3.06;100.00
50734;BME280;36701;51.798;19.474;2022-11-20T00:36:09;98523.81;;;-3.08;100.00
50734;BME280;36701;51.798;19.474;2022-11-20T00:38:36;98523.44;;;-2.97;100.00
50734;BME280;36701;51.798;19.474;2022-11-20T00:41:08;98485.16;;;-3.39;100.00
50734;BME280;36701;51.798;19.474;2022-11-20T00:43:35;98517.16;;;-2.96;100.00
50734;BME280;36701;51.798;19.474;2022-11-20T00:46:08;98511.19;;;-3.13;100.00
50734;BME280;36701;51.798;19.474;2022-11-20T00:48:35;98516.22;;;-3.03;100.00
50734;BME280;36701;51.798;19.474;2022-11-20T00:51:02;98521.50;;;-3.03;100.00
50734;BME280;36701;51.798;19.474;2022-11-20T00:53:28;98521.84;;;-2.60;100.00
50734;BME280;36701;51.798;19.474;2022-11-20T00:55:57;98485.91;;;-2.76;100.00
50734;BME280;36701;51.798;19.474;2022-11-20T00:58:25;98525.00;;;-2.87;100.00
50734;BME280;36701;51.798;19.474;2022-11-20T03:02:16;98497.25;;;-2.75;100.00
50734;BME280;36701;51.798;19.474;2022-11-20T03:04:43;98487.84;;;-2.54;100.00
50734;BME280;36701;51.798;19.474;2022-11-20T03:07:09;98442.22;;;-2.93;100.00
50734;BME280;36701;51.798;19.474;2022-11-20T03:09:36;98488.47;;;-2.52;100.00
50734;BME280;36701;51.798;19.474;2022-11-20T03:12:02;98487.84;;;-2.54;100.00
50734;BME280;36701;51.798;19.474;2022-11-20T03:14:29;98490.84;;;-2.58;100.00
50734;BME280;36701;51.798;19.474;2022-11-20T03:16:55;98446.19;;;-2.74;100.00
50734;BME280;36701;51.798;19.474;2022-11-20T03:19:22;98453.66;;;-2.63;100.00
50734;BME280;36701;51.798;19.474;2022-11-20T03:21:56;98492.84;;;-2.60;100.00
50734;BME280;36701;51.798;19.474;2022-11-20T03:24:23;98450.41;;;-2.65;100.00
50734;BME280;36701;51.798;19.474;2022-11-20T03:26:49;98480.94;;;-2.56;100.00
50734;BME280;36701;51.798;19.474;2022-11-20T03:29:15;98493.03;;;-2.46;100.00
50734;BME280;36701;51.798;19.474;2022-11-20T03:31:42;98486.56;;;-2.59;100.00
50734;BME280;36701;51.798;19.474;2022-11-20T03:34:10;98483.87;;;-2.50;100.00
50734;BME280;36701;51.798;19.474;2022-11-20T03:36:38;98488.84;;;-2.56;100.00
50734;BME280;36701;51.798;19.474;2022-11-20T03:39:05;98486.00;;;-2.69;100.00
50734;BME280;36701;51.798;19.474;2022-11-20T03:41:36;98457.59;;;-2.97;100.00
50734;BME280;36701;51.798;19.474;2022-11-20T03:44:05;98490.31;;;-2.76;100.00
50734;BME280;36701;51.798;19.474;2022-11-20T03:46:32;98495.59;;;-2.76;100.00
50734;BME280;36701;51.798;19.474;2022-11-20T03:48:59;98496.91;;;-2.72;100.00
50734;BME280;36701;51.798;19.474;2022-11-20T03:51:30;98500.41;;;-2.80;100.00
50734;BME280;36701;51.798;19.474;2022-11-20T03:53:59;98498.53;;;-2.71;100.00
50734;BME280;36701;51.798;19.474;2022-11-20T03:56:28;98497.88;;;-2.73;100.00
50734;BME280;36701;51.798;19.474;2022-11-20T03:58:55;98492.75;;;-2.89;100.00
50734;BME280;36701;51.798;19.474;2022-11-20T04:01:27;98492.28;;;-2.93;100.00
50734;BME280;36701;51.798;19.474;2022-11-20T04:03:55;98493.34;;;-3.02;100.00
50734;BME280;36701;51.798;19.474;2022-11-20T04:06:27;98491.87;;;-3.05;100.00
50734;BME280;36701;51.798;19.474;2022-11-20T04:08:55;98483.25;;;-2.99;100.00
50734;BME280;36701;51.798;19.474;2022-11-20T04:11:24;98469.09;;;-2.98;100.00
50734;BME280;36701;51.798;19.474;2022-11-20T04:13:53;98480.69;;;-3.07;100.00
50734;BME280;36701;51.798;19.474;2022-11-20T04:16:21;98477.47;;;-3.17;100.00
50734;BME280;36701;51.798;19.474;2022-11-20T04:19:00;98439.16;;;-3.51;100.00
50734;BME280;36701;51.798;19.474;2022-11-20T04:21:27;98480.75;;;-3.15;100.00
50734;BME280;36701;51.798;19.474;2022-11-20T04:23:55;98449.78;;;-3.36;100.00
50734;BME280;36701;51.798;19.474;2022-11-20T04:26:23;98475.44;;;-3.38;100.00
50734;BME280;36701;51.798;19.474;2022-11-20T04:28:49;98432.53;;;-3.39;100.00
50734;BME280;36701;51.798;19.474;2022-11-20T04:31:21;98472.09;;;-3.01;100.00
50734;BME280;36701;51.798;19.474;2022-11-20T04:33:48;98443.09;;;-3.24;100.00
50734;BME280;36701;51.798;19.474;2022-11-20T04:36:20;98474.91;;;-3.25;100.00
50734;BME280;36701;51.798;19.474;2022-11-20T04:38:51;98478.06;;;-3.30;100.00
50734;BME280;36701;51.798;19.474;2022-11-20T04:41:19;98471.03;;;-2.92;100.00
50734;BME280;36701;51.798;19.474;2022-11-20T04:43:50;98460.97;;;-3.11;100.00
50734;BME280;36701;51.798;19.474;2022-11-20T04:46:18;98428.41;;;-3.65;100.00
50734;BME280;36701;51.798;19.474;2022-11-20T04:48:46;98465.47;;;-3.20;100.00
50734;BME280;36701;51.798;19.474;2022-11-20T04:51:12;98468.28;;;-3.21;100.00
50734;BME280;36701;51.798;19.474;2022-11-20T04:53:40;98457.56;;;-3.43;100.00
50734;BME280;36701;51.798;19.474;2022-11-20T04:56:08;98465.53;;;-3.59;100.00
50734;BME280;36701;51.798;19.474;2022-11-20T04:58:35;98426.84;;;-3.82;100.00
50734;BME280;36701;51.798;19.474;2022-11-20T05:03:39;98453.06;;;-3.66;100.00
50734;BME280;36701;51.798;19.474;2022-11-20T05:06:06;98443.59;;;-3.83;100.00
50734;BME280;36701;51.798;19.474;2022-11-20T05:08:33;98451.03;;;-3.87;100.00
50734;BME280;36701;51.798;19.474;2022-11-20T05:11:01;98457.38;;;-3.73;100.00
50734;BME280;36701;51.798;19.474;2022-11-20T05:13:28;98407.97;;;-4.25;100.00
50734;BME280;36701;51.798;19.474;2022-11-20T05:15:54;98462.84;;;-4.22;100.00
50734;BME280;36701;51.798;19.474;2022-11-20T05:18:21;98457.78;;;-4.48;100.00
50734;BME280;36701;51.798;19.474;2022-11-20T05:20:54;98425.50;;;-5.06;100.00
50734;BME280;36701;51.798;19.474;2022-11-20T05:23:21;98470.47;;;-4.68;100.00
50734;BME280;36701;51.798;19.474;2022-11-20T05:25:47;98464.91;;;-5.06;100.00
50734;BME280;36701;51.798;19.474;2022-11-20T05:28:14;98406.16;;;-5.05;100.00
50734;BME280;36701;51.798;19.474;2022-11-20T05:30:40;98469.50;;;-5.00;100.00
50734;BME280;36701;51.798;19.474;2022-11-20T05:33:07;98477.84;;;-4.88;100.00
50734;BME280;36701;51.798;19.474;2022-11-20T05:35:33;98475.09;;;-4.70;100.00
50734;BME280;36701;51.798;19.474;2022-11-20T05:38:00;98434.88;;;-4.87;100.00
50734;BME280;36701;51.798;19.474;2022-11-20T05:40:26;98436.00;;;-4.98;100.00
50734;BME280;36701;51.798;19.474;2022-11-20T05:42:53;98466.88;;;-5.08;100.00
50734;BME280;36701;51.798;19.474;2022-11-20T05:45:19;98465.22;;;-5.09;100.00
50734;BME280;36701;51.798;19.474;2022-11-20T05:47:46;98455.38;;;-5.24;100.00
50734;BME280;36701;51.798;19.474;2022-11-20T05:50:13;98417.94;;;-5.51;100.00
50734;BME280;36701;51.798;19.474;2022-11-20T05:52:40;98461.22;;;-5.55;100.00
50734;BME280;36701;51.798;19.474;2022-11-20T05:55:07;98469.44;;;-5.33;100.00
50734;BME280;36701;51.798;19.474;2022-11-20T05:57:34;98455.69;;;-5.11;100.00
50734;BME280;36701;51.798;19.474;2022-11-20T06:00:01;98402.34;;;-5.60;100.00
50734;BME280;36701;51.798;19.474;2022-11-20T06:02:34;98457.00;;;-5.31;100.00
50734;BME280;36701;51.798;19.474;2022-11-20T06:05:01;98422.91;;;-5.31;100.00
50734;BME280;36701;51.798;19.474;2022-11-20T06:07:27;98459.16;;;-4.94;100.00
50734;BME280;36701;51.798;19.474;2022-11-20T06:09:53;98416.16;;;-5.17;100.00
50734;BME280;36701;51.798;19.474;2022-11-20T06:12:20;98416.97;;;-5.50;100.00
50734;BME280;36701;51.798;19.474;2022-11-20T06:14:46;98450.78;;;-5.14;100.00
50734;BME280;36701;51.798;19.474;2022-11-20T06:17:13;98446.00;;;-5.35;100.00
50734;BME280;36701;51.798;19.474;2022-11-20T06:19:39;98452.56;;;-5.14;100.00
50734;BME280;36701;51.798;19.474;2022-11-20T06:22:06;98456.53;;;-5.18;100.00
50734;BME280;36701;51.798;19.474;2022-11-20T06:24:32;98463.25;;;-5.16;100.00
50734;BME280;36701;51.798;19.474;2022-11-20T06:26:59;98455.72;;;-5.02;100.00
50734;BME280;36701;51.798;19.474;2022-11-20T06:29:25;98428.12;;;-5.06;100.00
50734;BME280;36701;51.798;19.474;2022-11-20T06:31:51;98460.28;;;-4.63;100.00
50734;BME280;36701;51.798;19.474;2022-11-20T06:34:18;98464.22;;;-4.76;100.00
50734;BME280;36701;51.798;19.474;2022-11-20T06:36:45;98424.88;;;-5.08;100.00
50734;BME280;36701;51.798;19.474;2022-11-20T06:39:11;98461.94;;;-5.03;100.00
50734;BME280;36701;51.798;19.474;2022-11-20T06:41:37;98422.91;;;-5.31;100.00
50734;BME280;36701;51.798;19.474;2022-11-20T06:44:04;98467.84;;;-5.01;100.00
50734;BME280;36701;51.798;19.474;2022-11-20T06:46:32;98460.44;;;-5.06;100.00
50734;BME280;36701;51.798;19.474;2022-11-20T06:48:58;98431.09;;;-5.18;100.00
50734;BME280;36701;51.798;19.474;2022-11-20T06:51:24;98451.28;;;-5.02;100.00
50734;BME280;36701;51.798;19.474;2022-11-20T06:53:51;98425.19;;;-4.95;100.00
50734;BME280;36701;51.798;19.474;2022-11-20T06:56:17;98453.37;;;-4.72;100.00
50734;BME280;36701;51.798;19.474;2022-11-20T06:58:43;98444.53;;;-4.80;100.00
50734;BME280;36701;51.798;19.474;2022-11-20T07:01:12;98457.62;;;-4.47;100.00
50734;BME280;36701;51.798;19.474;2022-11-20T07:03:40;98451.06;;;-4.43;100.00
50734;BME280;36701;51.798;19.474;2022-11-20T07:06:07;98442.75;;;-4.15;100.00
50734;BME280;36701;51.798;19.474;2022-11-20T07:08:34;98445.94;;;-4.36;100.00
50734;BME280;36701;51.798;19.474;2022-11-20T07:11:04;98441.06;;;-3.99;100.00
50734;BME280;36701;51.798;19.474;2022-11-20T07:13:31;98434.44;;;-3.87;100.00
50734;BME280;36701;51.798;19.474;2022-11-20T07:16:02;98402.63;;;-4.09;100.00
50734;BME280;36701;51.798;19.474;2022-11-20T07:18:29;98441.81;;;-3.83;100.00
50734;BME280;36701;51.798;19.474;2022-11-20T07:21:00;98397.50;;;-3.94;100.00
50734;BME280;36701;51.798;19.474;2022-11-20T07:23:26;98437.28;;;-3.66;100.00
50734;BME280;36701;51.798;19.474;2022-11-20T07:25:53;98436.13;;;-3.40;100.00
50734;BME280;36701;51.798;19.474;2022-11-20T07:28:19;98431.41;;;-3.21;100.00
50734;BME280;36701;51.798;19.474;2022-11-20T07:30:52;98432.34;;;-3.37;100.00
50734;BME280;36701;51.798;19.474;2022-11-20T07:33:19;98433.34;;;-3.15;100.00
50734;BME280;36701;51.798;19.474;2022-11-20T07:35:46;98441.66;;;-3.26;100.00
50734;BME280;36701;51.798;19.474;2022-11-20T07:38:12;98428.31;;;-3.25;100.00
50734;BME280;36701;51.798;19.474;2022-11-20T07:40:39;98390.41;;;-3.16;100.00
50734;BME280;36701;51.798;19.474;2022-11-20T07:43:05;98385.69;;;-3.05;100.00
50734;BME280;36701;51.798;19.474;2022-11-20T07:45:32;98426.38;;;-2.70;100.00
50734;BME280;36701;51.798;19.474;2022-11-20T07:47:58;98412.38;;;-2.85;100.00
50734;BME280;36701;51.798;19.474;2022-11-20T07:50:25;98389.00;;;-2.88;100.00
50734;BME280;36701;51.798;19.474;2022-11-20T07:52:51;98430.31;;;-2.89;100.00
50734;BME280;36701;51.798;19.474;2022-11-20T07:55:18;98423.50;;;-2.45;100.00
50734;BME280;36701;51.798;19.474;2022-11-20T07:57:45;98340.84;;;-2.97;100.00
50734;BME280;36701;51.798;19.474;2022-11-20T08:00:12;98421.94;;;-2.69;100.00
50734;BME280;36701;51.798;19.474;2022-11-20T08:02:40;98420.66;;;-2.59;100.00
50734;BME280;36701;51.798;19.474;2022-11-20T08:05:08;98411.84;;;-2.51;100.00
50734;BME280;36701;51.798;19.474;2022-11-20T08:07:39;98380.97;;;-2.42;100.00
50734;BME280;36701;51.798;19.474;2022-11-20T08:10:08;98374.97;;;-2.36;100.00
50734;BME280;36701;51.798;19.474;2022-11-20T08:12:34;98403.62;;;-2.33;100.00
50734;BME280;36701;51.798;19.474;2022-11-20T08:15:20;98364.22;;;-2.49;100.00
50734;BME280;36701;51.798;19.474;2022-11-20T08:17:47;98405.50;;;-2.27;100.00
50734;BME280;36701;51.798;19.474;2022-11-20T08:20:13;98389.66;;;-2.27;100.00
50734;BME280;36701;51.798;19.474;2022-11-20T08:22:40;98383.66;;;-2.21;100.00
50734;BME280;36701;51.798;19.474;2022-11-20T08:25:06;98378.22;;;-2.04;100.00
50734;BME280;36701;51.798;19.474;2022-11-20T08:27:33;98389.38;;;-2.02;100.00
50734;BME280;36701;51.798;19.474;2022-11-20T08:30:00;98350.56;;;-2.08;100.00
50734;BME280;36701;51.798;19.474;2022-11-20T08:32:26;98385.28;;;-1.90;100.00
50734;BME280;36701;51.798;19.474;2022-11-20T08:34:53;98389.88;;;-2.13;100.00
50734;BME280;36701;51.798;19.474;2022-11-20T08:37:19;98390.56;;;-1.90;100.00
50734;BME280;36701;51.798;19.474;2022-11-20T08:39:46;98390.09;;;-1.93;100.00
50734;BME280;36701;51.798;19.474;2022-11-20T08:42:12;98367.66;;;-2.04;100.00
50734;BME280;36701;51.798;19.474;2022-11-20T08:44:39;98382.53;;;-1.81;100.00
50734;BME280;36701;51.798;19.474;2022-11-20T08:47:05;98384.56;;;-1.62;100.00
50734;BME280;36701;51.798;19.474;2022-11-20T08:49:38;98384.81;;;-1.57;100.00
50734;BME280;36701;51.798;19.474;2022-11-20T08:52:05;98383.47;;;-1.68;100.00
50734;BME280;36701;51.798;19.474;2022-11-20T08:54:31;98385.84;;;-1.58;100.00
50734;BME280;36701;51.798;19.474;2022-11-20T08:56:58;98381.19;;;-1.56;100.00
50734;BME280;36701;51.798;19.474;2022-11-20T08:59:25;98376.56;;;-1.69;100.00
50734;BME280;36701;51.798;19.474;2022-11-20T09:01:52;98383.66;;;-1.69;100.00
50734;BME280;36701;51.798;19.474;2022-11-20T09:04:19;98334.97;;;-1.88;100.00
50734;BME280;36701;51.798;19.474;2022-11-20T09:06:45;98385.34;;;-1.47;100.00
50734;BME280;36701;51.798;19.474;2022-11-20T09:09:12;98376.16;;;-1.51;100.00
50734;BME280;36701;51.798;19.474;2022-11-20T09:11:38;98321.06;;;-1.54;100.00
50734;BME280;36701;51.798;19.474;2022-11-20T09:14:05;98354.87;;;-1.42;100.00
50734;BME280;36701;51.798;19.474;2022-11-20T09:16:32;98357.34;;;-1.41;100.00
50734;BME280;36701;51.798;19.474;2022-11-20T09:18:58;98367.47;;;-1.44;100.00
50734;BME280;36701;51.798;19.474;2022-11-20T09:21:25;98365.06;;;-1.39;100.00
50734;BME280;36701;51.798;19.474;2022-11-20T09:23:51;98331.19;;;-1.57;100.00
50734;BME280;36701;51.798;19.474;2022-11-20T09:26:18;98362.06;;;-1.15;100.00
50734;BME280;36701;51.798;19.474;2022-11-20T09:28:45;98358.59;;;-1.15;100.00
50734;BME280;36701;51.798;19.474;2022-11-20T09:31:22;98357.16;;;-1.18;100.00
50734;BME280;36701;51.798;19.474;2022-11-20T09:33:49;98348.91;;;-0.80;100.00
50734;BME280;36701;51.798;19.474;2022-11-20T09:36:16;98320.59;;;-1.14;100.00
50734;BME280;36701;51.798;19.474;2022-11-20T09:38:45;98337.72;;;-1.10;100.00
50734;BME280;36701;51.798;19.474;2022-11-20T09:55:39;98336.09;;;-0.48;100.00
50734;BME280;36701;51.798;19.474;2022-11-20T09:58:07;98306.75;;;-0.88;100.00
50734;BME280;36701;51.798;19.474;2022-11-20T10:00:39;98342.38;;;-0.07;100.00
50734;BME280;36701;51.798;19.474;2022-11-20T10:03:13;98328.06;;;-0.13;100.00
50734;BME280;36701;51.798;19.474;2022-11-20T10:05:47;98337.94;;;0.00;100.00
50734;BME280;36701;51.798;19.474;2022-11-20T10:08:25;98333.53;;;-0.21;99.68
50734;BME280;36701;51.798;19.474;2022-11-20T10:11:12;98338.34;;;0.04;99.02
50734;BME280;36701;51.798;19.474;2022-11-20T10:19:47;98327.25;;;0.55;99.39
50734;BME280;36701;51.798;19.474;2022-11-20T10:24:42;98298.31;;;0.60;95.86
50734;BME280;36701;51.798;19.474;2022-11-20T10:30:12;98322.56;;;0.97;95.42
50734;BME280;36701;51.798;19.474;2022-11-20T10:32:48;98320.94;;;0.83;87.09
50734;BME280;36701;51.798;19.474;2022-11-20T10:35:34;98325.00;;;0.45;85.17
50734;BME280;36701;51.798;19.474;2022-11-20T10:38:09;98327.66;;;0.79;83.87
50734;BME280;36701;51.798;19.474;2022-11-20T10:40:43;98327.88;;;0.70;81.29
50734;BME280;36701;51.798;19.474;2022-11-20T10:43:33;98322.97;;;0.87;80.15
50734;BME280;36701;51.798;19.474;2022-11-20T10:46:04;98312.75;;;1.31;81.09
50734;BME280;36701;51.798;19.474;2022-11-20T10:48:36;98306.22;;;1.27;80.13
50734;BME280;36701;51.798;19.474;2022-11-20T10:51:25;98276.09;;;0.75;76.21
50734;BME280;36701;51.798;19.474;2022-11-20T10:56:51;98296.75;;;1.51;78.96
50734;BME280;36701;51.798;19.474;2022-11-20T10:59:30;98271.75;;;1.79;72.81
50734;BME280;36701;51.798;19.474;2022-11-20T11:02:01;98306.12;;;1.60;69.85
50734;BME280;36701;51.798;19.474;2022-11-20T11:07:43;98302.78;;;1.85;65.51
50734;BME280;36701;51.798;19.474;2022-11-20T11:09:52;98290.50;;;1.25;70.16
50734;BME280;36701;51.798;19.474;2022-11-20T11:12:20;98300.75;;;1.80;70.06
50734;BME280;36701;51.798;19.474;2022-11-20T11:14:50;98297.84;;;1.23;72.23
50734;BME280;36701;51.798;19.474;2022-11-20T11:17:24;98265.91;;;0.85;74.40
50734;BME280;36701;51.798;19.474;2022-11-20T11:20:00;98260.09;;;1.35;75.99
50734;BME280;36701;51.798;19.474;2022-11-20T11:22:30;98255.91;;;0.67;67.38
50734;BME280;36701;51.798;19.474;2022-11-20T11:24:57;98279.28;;;1.23;70.94
50734;BME280;36701;51.798;19.474;2022-11-20T11:27:24;98286.22;;;1.18;67.85
50734;BME280;36701;51.798;19.474;2022-11-20T11:30:01;98246.25;;;1.13;69.37
50734;BME280;36701;51.798;19.474;2022-11-20T11:32:28;98284.97;;;1.34;67.70
50734;BME280;36701;51.798;19.474;2022-11-20T11:34:59;98271.13;;;1.25;69.55
50734;BME280;36701;51.798;19.474;2022-11-20T11:37:32;98255.63;;;1.22;71.20
50734;BME280;36701;51.798;19.474;2022-11-20T11:40:00;98272.00;;;1.64;69.83
50734;BME280;36701;51.798;19.474;2022-11-20T11:42:27;98240.50;;;1.29;67.03
50734;BME280;36701;51.798;19.474;2022-11-20T11:44:57;98272.94;;;1.31;66.18
50734;BME280;36701;51.798;19.474;2022-11-20T11:47:44;98267.09;;;1.02;65.38
50734;BME280;36701;51.798;19.474;2022-11-20T12:03:24;98268.66;;;1.89;67.13
50734;BME280;36701;51.798;19.474;2022-11-20T12:06:19;98260.75;;;1.69;64.17
50734;BME280;36701;51.798;19.474;2022-11-20T12:09:02;98258.09;;;2.07;64.02
50734;BME280;36701;51.798;19.474;2022-11-20T12:11:55;98251.34;;;2.43;63.21
50734;BME280;36701;51.798;19.474;2022-11-20T12:14:34;98258.47;;;2.17;61.79
50734;BME280;36701;51.798;19.474;2022-11-20T12:17:02;98222.25;;;1.98;59.82
50734;BME280;36701;51.798;19.474;2022-11-20T12:19:33;98211.53;;;1.27;67.04
50734;BME280;36701;51.798;19.474;2022-11-20T12:25:02;98218.78;;;2.23;61.99
50734;BME280;36701;51.798;19.474;2022-11-20T12:30:14;98241.72;;;2.93;58.23
50734;BME280;36701;51.798;19.474;2022-11-20T12:53:01;98180.91;;;1.38;72.03
50734;BME280;36701;51.798;19.474;2022-11-20T13:00:58;98206.03;;;1.74;73.68
50734;BME280;36701;51.798;19.474;2022-11-20T13:03:43;98194.72;;;1.54;75.08
50734;BME280;36701;51.798;19.474;2022-11-20T13:06:20;98196.56;;;1.47;79.33
50734;BME280;36701;51.798;19.474;2022-11-20T13:08:55;98201.50;;;1.81;76.45
50734;BME280;36701;51.798;19.474;2022-11-20T13:11:34;98165.13;;;0.98;81.47
50734;BME280;36701;51.798;19.474;2022-11-20T13:14:16;98187.44;;;1.29;82.42
50734;BME280;36701;51.798;19.474;2022-11-20T13:17:25;98192.59;;;1.69;86.97
50734;BME280;36701;51.798;19.474;2022-11-20T13:19:56;98179.31;;;1.24;90.23
50734;BME280;36701;51.798;19.474;2022-11-20T13:22:31;98184.59;;;1.31;90.94
50734;BME280;36701;51.798;19.474;2022-11-20T13:27:58;98180.44;;;0.96;94.38
50734;BME280;36701;51.798;19.474;2022-11-20T13:30:26;98176.53;;;0.99;95.03
50734;BME280;36701;51.798;19.474;2022-11-20T13:32:56;98173.50;;;0.95;96.56
50734;BME280;36701;51.798;19.474;2022-11-20T13:35:34;98167.62;;;0.80;96.50
50734;BME280;36701;51.798;19.474;2022-11-20T13:38:12;98137.84;;;0.91;94.37
50734;BME280;36701;51.798;19.474;2022-11-20T13:40:53;98168.72;;;1.24;95.64
50734;BME280;36701;51.798;19.474;2022-11-20T13:43:37;98144.13;;;0.97;97.27
50734;BME280;36701;51.798;19.474;2022-11-20T13:46:07;98158.19;;;0.97;99.20
50734;BME280;36701;51.798;19.474;2022-11-20T13:48:44;98140.53;;;0.78;99.73
50734;BME280;36701;51.798;19.474;2022-11-20T14:00:19;98157.47;;;0.77;100.00
50734;BME280;36701;51.798;19.474;2022-11-20T14:03:09;98128.50;;;0.68;100.00
50734;BME280;36701;51.798;19.474;2022-11-20T14:05:51;98153.19;;;0.76;100.00
50734;BME280;36701;51.798;19.474;2022-11-20T14:08:47;98124.91;;;0.56;100.00
50734;BME280;36701;51.798;19.474;2022-11-20T14:11:20;98133.06;;;0.34;100.00
50734;BME280;36701;51.798;19.474;2022-11-20T14:14:00;98126.13;;;0.33;100.00
50734;BME280;36701;51.798;19.474;2022-11-20T14:16:30;98160.94;;;0.64;100.00
50734;BME280;36701;51.798;19.474;2022-11-20T14:18:58;98120.06;;;0.13;100.00
50734;BME280;36701;51.798;19.474;2022-11-20T14:21:42;98150.97;;;0.46;100.00
50734;BME280;36701;51.798;19.474;2022-11-20T14:24:13;98114.97;;;0.05;100.00
50734;BME280;36701;51.798;19.474;2022-11-20T14:26:44;98146.91;;;0.30;100.00
50734;BME280;36701;51.798;19.474;2022-11-20T14:29:13;98136.34;;;0.23;100.00
50734;BME280;36701;51.798;19.474;2022-11-20T14:31:42;98094.00;;;0.10;100.00
50734;BME280;36701;51.798;19.474;2022-11-20T14:34:17;98115.59;;;0.07;100.00
50734;BME280;36701;51.798;19.474;2022-11-20T14:36:45;98106.62;;;-0.19;100.00
50734;BME280;36701;51.798;19.474;2022-11-20T14:39:22;98125.72;;;-0.30;100.00
50734;BME280;36701;51.798;19.474;2022-11-20T14:41:52;98131.44;;;-0.33;100.00
50734;BME280;36701;51.798;19.474;2022-11-20T14:44:37;98136.09;;;-0.29;100.00
50734;BME280;36701;51.798;19.474;2022-11-20T14:47:13;98133.47;;;-0.35;100.00
50734;BME280;36701;51.798;19.474;2022-11-20T14:49:41;98131.00;;;-0.44;100.00
50734;BME280;36701;51.798;19.474;2022-11-20T14:52:15;98133.44;;;-0.49;100.00
50734;BME280;36701;51.798;19.474;2022-11-20T14:57:35;98142.38;;;-0.50;100.00
50734;BME280;36701;51.798;19.474;2022-11-20T15:02:41;98131.78;;;-0.57;100.00
50734;BME280;36701;51.798;19.474;2022-11-20T15:05:15;98121.41;;;-0.58;100.00
50734;BME280;36701;51.798;19.474;2022-11-20T15:07:52;98122.66;;;-0.54;100.00
50734;BME280;36701;51.798;19.474;2022-11-20T15:10:29;98109.19;;;-0.73;100.00
50734;BME280;36701;51.798;19.474;2022-11-20T15:13:02;98075.59;;;-0.92;100.00
50734;BME280;36701;51.798;19.474;2022-11-20T15:15:36;98099.88;;;-0.55;100.00
50734;BME280;36701;51.798;19.474;2022-11-20T15:18:11;98076.06;;;-0.68;100.00
50734;BME280;36701;51.798;19.474;2022-11-20T15:20:39;98071.56;;;-0.81;100.00
50734;BME280;36701;51.798;19.474;2022-11-20T15:23:14;98064.16;;;-0.99;100.00
50734;BME280;36701;51.798;19.474;2022-11-20T15:25:41;98103.09;;;-0.66;100.00
50734;BME280;36701;51.798;19.474;2022-11-20T15:28:33;98099.59;;;-0.74;100.00
50734;BME280;36701;51.798;19.474;2022-11-20T15:31:01;98095.16;;;-0.80;100.00
50734;BME280;36701;51.798;19.474;2022-11-20T15:33:30;98095.53;;;-0.83;100.00
50734;BME280;36701;51.798;19.474;2022-11-20T15:35:57;98102.44;;;-0.82;100.00
50734;BME280;36701;51.798;19.474;2022-11-20T15:38:23;98099.22;;;-0.70;100.00
50734;BME280;36701;51.798;19.474;2022-11-20T15:40:50;98090.19;;;-0.96;100.00
50734;BME280;36701;51.798;19.474;2022-11-20T15:43:17;98070.25;;;-1.05;100.00
50734;BME280;36701;51.798;19.474;2022-11-20T15:45:53;98081.66;;;-0.98;100.00
50734;BME280;36701;51.798;19.474;2022-11-20T15:48:23;98073.06;;;-1.14;100.00
50734;BME280;36701;51.798;19.474;2022-11-20T15:50:52;98102.41;;;-0.95;100.00
50734;BME280;36701;51.798;19.474;2022-11-20T15:53:20;98100.38;;;-0.93;100.00
50734;BME280;36701;51.798;19.474;2022-11-20T15:55:46;98101.41;;;-0.94;100.00
50734;BME280;36701;51.798;19.474;2022-11-20T15:58:13;98100.16;;;-0.98;100.00
50734;BME280;36701;51.798;19.474;2022-11-20T16:00:40;98079.59;;;-1.10;100.00
50734;BME280;36701;51.798;19.474;2022-11-20T16:03:10;98091.22;;;-0.97;100.00
50734;BME280;36701;51.798;19.474;2022-11-20T16:05:37;98101.94;;;-1.05;100.00
50734;BME280;36701;51.798;19.474;2022-11-20T16:08:03;98094.19;;;-1.20;100.00
50734;BME280;36701;51.798;19.474;2022-11-20T16:10:30;98088.91;;;-1.14;100.00
50734;BME280;36701;51.798;19.474;2022-11-20T16:12:57;98088.87;;;-1.20;100.00
50734;BME280;36701;51.798;19.474;2022-11-20T16:15:43;98090.09;;;-1.23;100.00
50734;BME280;36701;51.798;19.474;2022-11-20T16:18:13;98075.25;;;-1.31;100.00
50734;BME280;36701;51.798;19.474;2022-11-20T16:20:40;98096.66;;;-1.05;100.00
50734;BME280;36701;51.798;19.474;2022-11-20T16:23:07;98068.53;;;-1.33;100.00
50734;BME280;36701;51.798;19.474;2022-11-20T16:25:33;98088.31;;;-1.16;100.00
50734;BME280;36701;51.798;19.474;2022-11-20T16:28:00;98099.44;;;-1.27;100.00
50734;BME280;36701;51.798;19.474;2022-11-20T16:30:27;98097.34;;;-1.38;100.00
50734;BME280;36701;51.798;19.474;2022-11-20T16:32:53;98096.19;;;-1.29;100.00
50734;BME280;36701;51.798;19.474;2022-11-20T16:35:19;98065.28;;;-1.35;100.00
50734;BME280;36701;51.798;19.474;2022-11-20T16:37:46;98092.25;;;-1.40;100.00
50734;BME280;36701;51.798;19.474;2022-11-20T16:40:12;98078.16;;;-1.54;100.00